WXM80 ListenWXM80 Stop

You find our weather info also at:

UK Metoffice

WeatherCloud

Weather Underground

Northeastern Weather Network

AWEKAS

Citizen Weather Observer Program (CWOP)

HAMweather, WeatherForYou, PWS Weather


Weather Underground History page Text

Daily Summary for December 4, 2016 Units:  English    Metric   Both
« Previous Day
Next Day »
Daily Weekly Monthly Yearly Custom
  High: Low: Average:
Temperature: 44.7 °F 36.9 °F 40.1 °F
Dew Point: 32.2 °F 26.1 °F 28.7 °F
Humidity: 73 % 51 % 64 %
Wind Speed: 8.8 mph 0.0 mph 3.1 mph
Wind Gust: 13.8 mph - -
Wind:- - South
Pressure: 30.21 in 30.10 in -
Precipitation: 0.00 in    
Historical Graphs
 
 
Tabular Data for December 4, 2016
Time Temperature Dew Point Pressure Wind Wind Speed Wind Gust Humidity Rainfall Rate (Hourly)
00:02 41.7 °F 31.2 °F 30.12 in North 5.6 mph 9.2 mph 66 % 0.00 in
00:07 41.6 °F 31.1 °F 30.12 in NNE 4.9 mph 8.1 mph 66 % 0.00 in
00:12 41.6 °F 31.1 °F 30.12 in North 3.9 mph 5.8 mph 66 % 0.00 in
00:17 41.6 °F 31.4 °F 30.13 in North 4.1 mph 6.9 mph 67 % 0.00 in
00:22 41.6 °F 31.8 °F 30.13 in North 4.7 mph 6.9 mph 68 % 0.00 in
00:27 41.5 °F 32.1 °F 30.13 in North 6.9 mph 9.2 mph 69 % 0.00 in
00:32 41.5 °F 32.1 °F 30.14 in NNW 4.0 mph 5.8 mph 69 % 0.00 in
00:38 41.4 °F 32.0 °F 30.14 in NNE 8.8 mph 11.5 mph 69 % 0.00 in
00:43 41.4 °F 32.0 °F 30.14 in North 5.2 mph 7.0 mph 69 % 0.00 in
00:48 41.3 °F 32.2 °F 30.14 in North 5.5 mph 6.9 mph 70 % 0.00 in
00:53 41.1 °F 32.1 °F 30.13 in North 4.5 mph 8.1 mph 70 % 0.00 in
00:58 41.0 °F 32.0 °F 30.13 in North 6.4 mph 10.4 mph 70 % 0.00 in
01:03 40.8 °F 31.4 °F 30.14 in NNE 8.3 mph 13.8 mph 69 % 0.00 in
01:08 40.7 °F 31.7 °F 30.14 in NE 6.4 mph 11.5 mph 70 % 0.00 in
01:13 40.7 °F 32.0 °F 30.14 in North 5.4 mph 9.2 mph 71 % 0.00 in
01:18 40.6 °F 31.9 °F 30.14 in NNE 3.3 mph 9.2 mph 71 % 0.00 in
01:23 40.5 °F 31.5 °F 30.15 in North 1.8 mph 5.8 mph 70 % 0.00 in
01:28 40.4 °F 31.4 °F 30.15 in NNW 5.5 mph 10.4 mph 70 % 0.00 in
01:34 40.3 °F 31.3 °F 30.15 in NE 5.1 mph 6.9 mph 70 % 0.00 in
01:39 40.2 °F 31.2 °F 30.16 in NNE 6.8 mph 11.5 mph 70 % 0.00 in
01:44 40.1 °F 31.1 °F 30.16 in North 2.5 mph 6.9 mph 70 % 0.00 in
01:49 40.0 °F 31.0 °F 30.15 in North 2.0 mph 6.9 mph 70 % 0.00 in
01:54 39.9 °F 30.9 °F 30.15 in North 5.7 mph 8.1 mph 70 % 0.00 in
01:59 39.8 °F 30.8 °F 30.16 in NNW 3.2 mph 9.0 mph 70 % 0.00 in
02:04 39.7 °F 31.1 °F 30.15 in North 3.2 mph 7.0 mph 71 % 0.00 in
02:09 39.6 °F 31.0 °F 30.15 in NW 4.6 mph 6.0 mph 71 % 0.00 in
02:14 39.5 °F 30.9 °F 30.16 in NNW 1.7 mph 5.8 mph 71 % 0.00 in
02:19 39.4 °F 31.1 °F 30.16 in NW 2.6 mph 9.2 mph 72 % 0.00 in
02:25 39.3 °F 31.0 °F 30.16 in NW 2.5 mph 3.5 mph 72 % 0.00 in
02:30 39.2 °F 30.9 °F 30.16 in North 2.5 mph 5.8 mph 72 % 0.00 in
02:35 39.2 °F 30.9 °F 30.16 in NNW 3.0 mph 7.0 mph 72 % 0.00 in
02:40 39.1 °F 31.2 °F 30.16 in NNW 4.4 mph 9.2 mph 73 % 0.00 in
02:45 39.1 °F 31.1 °F 30.16 in NW 2.0 mph 7.0 mph 73 % 0.00 in
02:50 39.0 °F 31.1 °F 30.16 in NNW 3.0 mph 6.0 mph 73 % 0.00 in
02:55 39.1 °F 30.8 °F 30.16 in North 1.0 mph 6.0 mph 72 % 0.00 in
03:00 39.0 °F 30.7 °F 30.16 in NNW 1.2 mph 5.8 mph 72 % 0.00 in
03:05 39.0 °F 30.7 °F 30.16 in NNW 3.8 mph 8.1 mph 72 % 0.00 in
03:10 39.0 °F 30.7 °F 30.16 in NNW 4.5 mph 8.1 mph 72 % 0.00 in
03:15 38.9 °F 30.6 °F 30.16 in NNW 3.4 mph 5.8 mph 72 % 0.00 in
03:20 38.9 °F 30.6 °F 30.16 in North 5.0 mph 10.4 mph 72 % 0.00 in
03:25 38.8 °F 30.9 °F 30.16 in North 3.6 mph 7.0 mph 73 % 0.00 in
03:30 38.8 °F 30.9 °F 30.16 in West 4.1 mph 8.0 mph 73 % 0.00 in
03:35 38.8 °F 30.5 °F 30.16 in NW 2.1 mph 5.8 mph 72 % 0.00 in
03:41 38.8 °F 30.2 °F 30.16 in NNW 3.1 mph 11.5 mph 71 % 0.00 in
03:46 38.7 °F 30.4 °F 30.16 in NNW 5.8 mph 9.0 mph 72 % 0.00 in
03:51 38.7 °F 30.4 °F 30.16 in WNW 3.3 mph 9.2 mph 72 % 0.00 in
03:56 38.7 °F 30.1 °F 30.16 in NW 5.7 mph 9.2 mph 71 % 0.00 in
04:01 38.6 °F 30.4 °F 30.15 in North 3.5 mph 5.8 mph 72 % 0.00 in
04:06 38.6 °F 30.4 °F 30.15 in North 4.5 mph 9.2 mph 72 % 0.00 in
04:11 38.5 °F 30.3 °F 30.15 in NNW 3.6 mph 8.1 mph 72 % 0.00 in
04:16 38.5 °F 30.3 °F 30.16 in NNW 5.1 mph 6.0 mph 72 % 0.00 in
04:21 38.4 °F 30.2 °F 30.16 in NNE 5.6 mph 8.1 mph 72 % 0.00 in
04:26 38.4 °F 30.2 °F 30.16 in NNW 3.1 mph 5.8 mph 72 % 0.00 in
04:32 38.4 °F 30.2 °F 30.16 in North 1.7 mph 5.8 mph 72 % 0.00 in
04:37 38.3 °F 30.1 °F 30.15 in NNW 2.3 mph 6.9 mph 72 % 0.00 in
04:42 38.2 °F 30.0 °F 30.16 in NW 3.8 mph 6.0 mph 72 % 0.00 in
04:47 38.1 °F 29.9 °F 30.16 in NNW 4.8 mph 6.9 mph 72 % 0.00 in
04:52 38.0 °F 29.8 °F 30.15 in NNW 4.9 mph 9.0 mph 72 % 0.00 in
04:57 37.9 °F 29.7 °F 30.15 in NW 2.0 mph 3.5 mph 72 % 0.00 in
05:02 37.9 °F 29.7 °F 30.16 in NNW 3.8 mph 6.0 mph 72 % 0.00 in
05:07 37.8 °F 29.6 °F 30.16 in NNW 0.6 mph 1.2 mph 72 % 0.00 in
05:12 37.7 °F 29.5 °F 30.16 in NNW 3.8 mph 4.6 mph 72 % 0.00 in
05:17 37.7 °F 29.1 °F 30.16 in NW 3.9 mph 5.8 mph 71 % 0.00 in
05:23 37.7 °F 29.1 °F 30.16 in NNW 1.3 mph 5.8 mph 71 % 0.00 in
05:28 37.6 °F 29.0 °F 30.16 in NNW 3.4 mph 5.8 mph 71 % 0.00 in
05:33 37.6 °F 29.0 °F 30.17 in NNW 2.1 mph 8.1 mph 71 % 0.00 in
05:38 37.6 °F 29.0 °F 30.16 in North 5.6 mph 11.5 mph 71 % 0.00 in
05:43 37.7 °F 29.1 °F 30.16 in North 5.6 mph 10.4 mph 71 % 0.00 in
05:48 37.7 °F 28.8 °F 30.16 in NNW 3.1 mph 7.0 mph 70 % 0.00 in
05:53 37.6 °F 28.7 °F 30.16 in North 2.7 mph 4.6 mph 70 % 0.00 in
05:58 37.6 °F 29.0 °F 30.16 in NNE 1.9 mph 5.8 mph 71 % 0.00 in
06:03 37.5 °F 28.6 °F 30.16 in NNW 3.4 mph 5.8 mph 70 % 0.00 in
06:08 37.4 °F 28.5 °F 30.16 in NNE 3.5 mph 6.9 mph 70 % 0.00 in
06:13 37.4 °F 28.9 °F 30.16 in NNW 2.0 mph 3.5 mph 71 % 0.00 in
06:19 37.3 °F 28.8 °F 30.16 in NNE 2.7 mph 3.5 mph 71 % 0.00 in
06:24 37.3 °F 28.4 °F 30.17 in NNW 1.2 mph 4.6 mph 70 % 0.00 in
06:29 37.2 °F 28.3 °F 30.17 in NNW 2.2 mph 4.6 mph 70 % 0.00 in
06:34 37.1 °F 28.2 °F 30.17 in North 2.7 mph 6.9 mph 70 % 0.00 in
06:39 37.0 °F 28.1 °F 30.17 in North 4.6 mph 9.2 mph 70 % 0.00 in
06:44 37.0 °F 27.8 °F 30.17 in NNW 5.0 mph 9.2 mph 69 % 0.00 in
06:49 37.0 °F 27.4 °F 30.17 in NNW 3.1 mph 6.9 mph 68 % 0.00 in
06:54 37.0 °F 27.4 °F 30.18 in North 1.2 mph 4.6 mph 68 % 0.00 in
06:59 37.0 °F 27.4 °F 30.18 in NW 2.2 mph 5.0 mph 68 % 0.00 in
07:04 37.0 °F 27.4 °F 30.19 in NW 1.8 mph 4.6 mph 68 % 0.00 in
07:10 37.0 °F 27.4 °F 30.19 in NNE 4.6 mph 5.0 mph 68 % 0.00 in
07:15 37.0 °F 27.4 °F 30.18 in NW 3.3 mph 8.0 mph 68 % 0.00 in
07:20 36.9 °F 27.3 °F 30.18 in North 3.0 mph 7.0 mph 68 % 0.00 in
07:25 36.9 °F 27.3 °F 30.19 in North 3.0 mph 8.0 mph 68 % 0.00 in
07:30 37.0 °F 27.4 °F 30.18 in North 5.1 mph 9.0 mph 68 % 0.00 in
07:35 37.1 °F 27.2 °F 30.18 in North 5.0 mph 9.0 mph 67 % 0.00 in
07:40 37.2 °F 27.6 °F 30.18 in NNW 3.0 mph 8.0 mph 68 % 0.00 in
07:45 37.3 °F 27.3 °F 30.19 in NNE 3.7 mph 8.1 mph 67 % 0.00 in
07:50 37.3 °F 27.3 °F 30.19 in North 3.0 mph 7.0 mph 67 % 0.00 in
07:55 37.3 °F 27.3 °F 30.19 in North 3.0 mph 9.0 mph 67 % 0.00 in
08:00 37.4 °F 27.4 °F 30.19 in North 3.3 mph 8.1 mph 67 % 0.00 in
08:05 37.5 °F 27.9 °F 30.19 in North 3.0 mph 8.0 mph 68 % 0.00 in
08:10 37.5 °F 27.5 °F 30.19 in North 6.0 mph 10.0 mph 67 % 0.00 in
08:15 37.6 °F 27.6 °F 30.19 in North 6.0 mph 9.0 mph 67 % 0.00 in
08:20 37.7 °F 27.7 °F 30.19 in North 6.0 mph 8.0 mph 67 % 0.00 in
08:25 37.8 °F 27.1 °F 30.20 in NNE 6.0 mph 9.0 mph 65 % 0.00 in
08:30 37.9 °F 27.5 °F 30.20 in North 5.0 mph 9.0 mph 66 % 0.00 in
08:35 38.0 °F 27.3 °F 30.20 in NNW 2.8 mph 5.8 mph 65 % 0.00 in
08:40 38.1 °F 27.7 °F 30.20 in North 5.0 mph 9.0 mph 66 % 0.00 in
08:45 38.2 °F 27.8 °F 30.20 in North 2.0 mph 8.0 mph 66 % 0.00 in
08:50 38.2 °F 27.8 °F 30.20 in North 2.0 mph 7.0 mph 66 % 0.00 in
08:55 38.3 °F 27.9 °F 30.21 in North 5.0 mph 9.0 mph 66 % 0.00 in
09:00 38.4 °F 28.0 °F 30.21 in North 1.5 mph 8.1 mph 66 % 0.00 in
09:05 38.5 °F 28.1 °F 30.21 in North 3.0 mph 8.0 mph 66 % 0.00 in
09:10 38.7 °F 28.7 °F 30.21 in North 3.0 mph 6.0 mph 67 % 0.00 in
09:15 38.9 °F 28.1 °F 30.21 in NNE 5.0 mph 9.0 mph 65 % 0.00 in
09:20 39.3 °F 28.5 °F 30.21 in North 3.2 mph 8.1 mph 65 % 0.00 in
09:25 39.5 °F 28.7 °F 30.21 in North 3.0 mph 8.0 mph 65 % 0.00 in
09:30 39.7 °F 28.5 °F 30.21 in North 5.0 mph 8.0 mph 64 % 0.00 in
09:35 39.9 °F 29.1 °F 30.21 in North 2.0 mph 7.0 mph 65 % 0.00 in
09:40 40.2 °F 29.0 °F 30.21 in North 5.0 mph 9.0 mph 64 % 0.00 in
09:45 40.4 °F 29.6 °F 30.21 in North 3.0 mph 7.0 mph 65 % 0.00 in
09:50 40.6 °F 29.7 °F 30.20 in North 3.0 mph 6.0 mph 65 % 0.00 in
09:55 40.9 °F 29.7 °F 30.20 in North 5.0 mph 8.0 mph 64 % 0.00 in
10:00 41.2 °F 29.5 °F 30.20 in WNW 2.4 mph 3.5 mph 63 % 0.00 in
10:05 41.4 °F 29.4 °F 30.20 in North 3.0 mph 7.0 mph 62 % 0.00 in
10:10 41.5 °F 29.8 °F 30.20 in NW 1.0 mph 6.9 mph 63 % 0.00 in
10:15 41.6 °F 29.1 °F 30.20 in NNE 3.7 mph 5.8 mph 61 % 0.00 in
10:20 41.7 °F 29.6 °F 30.20 in NNW 2.8 mph 6.0 mph 62 % 0.00 in
10:25 41.8 °F 29.7 °F 30.20 in WNW 1.7 mph 4.0 mph 62 % 0.00 in
10:30 41.8 °F 29.3 °F 30.20 in NNE 4.9 mph 8.1 mph 61 % 0.00 in
10:35 41.8 °F 29.3 °F 30.19 in NNW 3.0 mph 5.8 mph 61 % 0.00 in
10:40 41.9 °F 29.4 °F 30.19 in NW 2.5 mph 5.8 mph 61 % 0.00 in
10:45 41.9 °F 29.0 °F 30.19 in NE 4.5 mph 5.8 mph 60 % 0.00 in
10:50 41.9 °F 29.4 °F 30.19 in North 4.7 mph 5.8 mph 61 % 0.00 in
10:55 41.8 °F 29.3 °F 30.19 in WNW 4.1 mph 6.9 mph 61 % 0.00 in
11:01 41.8 °F 29.3 °F 30.19 in WNW 5.2 mph 5.2 mph 61 % 0.00 in
11:06 41.7 °F 28.4 °F 30.19 in WNW 2.1 mph 6.0 mph 59 % 0.00 in
11:11 41.6 °F 28.7 °F 30.18 in WNW 5.0 mph 8.1 mph 60 % 0.00 in
11:16 41.6 °F 28.7 °F 30.18 in NNE 4.0 mph 5.0 mph 60 % 0.00 in
11:21 41.6 °F 28.3 °F 30.19 in WNW 2.8 mph 5.8 mph 59 % 0.00 in
11:26 41.6 °F 28.7 °F 30.19 in NW 1.0 mph 3.5 mph 60 % 0.00 in
11:31 41.6 °F 28.3 °F 30.19 in NW 2.4 mph 4.6 mph 59 % 0.00 in
11:36 41.6 °F 28.7 °F 30.18 in WNW 4.4 mph 7.0 mph 60 % 0.00 in
11:41 41.6 °F 28.3 °F 30.18 in WNW 7.7 mph 11.0 mph 59 % 0.00 in
11:46 41.6 °F 27.9 °F 30.18 in WNW 4.9 mph 10.0 mph 58 % 0.00 in
11:51 41.5 °F 27.8 °F 30.18 in NNW 3.4 mph 6.9 mph 58 % 0.00 in
11:57 41.6 °F 27.9 °F 30.18 in NNW 5.3 mph 11.5 mph 58 % 0.00 in
12:02 41.7 °F 28.0 °F 30.18 in West 7.2 mph 10.4 mph 58 % 0.00 in
12:07 41.8 °F 28.1 °F 30.18 in NNW 2.9 mph 4.6 mph 58 % 0.00 in
12:12 42.1 °F 28.8 °F 30.17 in WNW 3.2 mph 8.1 mph 59 % 0.00 in
12:17 42.5 °F 27.9 °F 30.17 in NW 3.2 mph 6.9 mph 56 % 0.00 in
12:22 42.8 °F 28.6 °F 30.17 in WNW 4.3 mph 6.9 mph 57 % 0.00 in
12:27 43.1 °F 28.5 °F 30.17 in NNW 3.5 mph 5.8 mph 56 % 0.00 in
12:32 43.3 °F 28.2 °F 30.17 in WNW 5.2 mph 9.2 mph 55 % 0.00 in
12:37 43.6 °F 28.9 °F 30.16 in NW 4.1 mph 8.1 mph 56 % 0.00 in
12:42 43.7 °F 28.1 °F 30.16 in NNW 3.9 mph 6.0 mph 54 % 0.00 in
12:48 43.8 °F 27.8 °F 30.16 in NW 4.2 mph 8.1 mph 53 % 0.00 in
12:53 43.8 °F 28.2 °F 30.17 in North 2.5 mph 8.1 mph 54 % 0.00 in
12:58 43.9 °F 28.3 °F 30.17 in NNW 3.6 mph 5.8 mph 54 % 0.00 in
13:03 44.0 °F 28.0 °F 30.17 in West 3.5 mph 8.1 mph 53 % 0.00 in
13:08 44.0 °F 28.0 °F 30.16 in WNW 3.8 mph 8.1 mph 53 % 0.00 in
13:13 44.1 °F 28.9 °F 30.16 in North 2.9 mph 4.6 mph 55 % 0.00 in
13:18 44.3 °F 28.2 °F 30.16 in NNW 4.0 mph 6.9 mph 53 % 0.00 in
13:23 44.4 °F 28.3 °F 30.16 in North 4.4 mph 7.0 mph 53 % 0.00 in
13:28 44.5 °F 28.0 °F 30.16 in North 3.2 mph 5.8 mph 52 % 0.00 in
13:33 44.6 °F 28.5 °F 30.16 in WNW 2.6 mph 5.8 mph 53 % 0.00 in
13:39 44.7 °F 28.1 °F 30.15 in NW 3.6 mph 4.6 mph 52 % 0.00 in
13:44 44.7 °F 28.6 °F 30.15 in NW 2.2 mph 3.5 mph 53 % 0.00 in
13:49 44.7 °F 28.6 °F 30.15 in NW 3.8 mph 9.2 mph 53 % 0.00 in
13:54 44.6 °F 28.0 °F 30.16 in WNW 3.7 mph 7.0 mph 52 % 0.00 in
13:59 44.5 °F 28.0 °F 30.16 in WNW 3.3 mph 4.6 mph 52 % 0.00 in
14:04 44.5 °F 28.0 °F 30.16 in WNW 4.6 mph 7.0 mph 52 % 0.00 in
14:09 44.4 °F 27.9 °F 30.16 in NW 2.8 mph 5.8 mph 52 % 0.00 in
14:14 44.3 °F 27.8 °F 30.15 in NNW 2.8 mph 4.6 mph 52 % 0.00 in
14:19 44.3 °F 27.8 °F 30.15 in North 2.6 mph 4.6 mph 52 % 0.00 in
14:24 44.3 °F 27.8 °F 30.16 in WNW 3.4 mph 5.8 mph 52 % 0.00 in
14:30 44.2 °F 28.1 °F 30.16 in WNW 3.8 mph 7.0 mph 53 % 0.00 in
14:35 44.2 °F 28.1 °F 30.16 in North 2.0 mph 7.0 mph 53 % 0.00 in
14:40 44.1 °F 27.1 °F 30.16 in North 3.0 mph 6.0 mph 51 % 0.00 in
14:45 44.0 °F 27.5 °F 30.17 in North 3.0 mph 6.0 mph 52 % 0.00 in
14:50 44.0 °F 27.5 °F 30.17 in North 6.0 mph 10.0 mph 52 % 0.00 in
14:55 43.9 °F 26.9 °F 30.17 in North 3.0 mph 8.0 mph 51 % 0.00 in
15:00 43.8 °F 26.8 °F 30.16 in NNE 3.5 mph 9.2 mph 51 % 0.00 in
15:05 43.7 °F 27.7 °F 30.17 in North 3.5 mph 6.0 mph 53 % 0.00 in
15:10 43.7 °F 27.2 °F 30.17 in NNE 4.9 mph 4.9 mph 52 % 0.00 in
15:15 43.6 °F 27.1 °F 30.17 in NW 1.6 mph 3.5 mph 52 % 0.00 in
15:20 43.4 °F 26.5 °F 30.17 in NNE 3.3 mph 3.5 mph 51 % 0.00 in
15:25 43.3 °F 26.8 °F 30.17 in NNW 2.3 mph 3.5 mph 52 % 0.00 in
15:30 43.2 °F 27.2 °F 30.17 in NNW 2.7 mph 6.9 mph 53 % 0.00 in
15:35 43.0 °F 27.0 °F 30.17 in North 0.2 mph 1.2 mph 53 % 0.00 in
15:40 42.8 °F 26.8 °F 30.17 in NNW 1.6 mph 3.5 mph 53 % 0.00 in
15:45 42.7 °F 26.7 °F 30.17 in North 2.8 mph 3.5 mph 53 % 0.00 in
15:51 42.5 °F 26.6 °F 30.17 in North 3.8 mph 5.8 mph 53 % 0.00 in
15:56 42.3 °F 26.4 °F 30.17 in Calm   1.2 mph 53 % 0.00 in
16:01 42.2 °F 27.2 °F 30.17 in NNE 3.7 mph 4.6 mph 55 % 0.00 in
16:06 41.9 °F 26.9 °F 30.17 in NNW 0.6 mph 3.5 mph 55 % 0.00 in
16:11 41.7 °F 26.7 °F 30.17 in NNW 2.2 mph 3.5 mph 55 % 0.00 in
16:16 41.5 °F 27.0 °F 30.17 in NNW 1.7 mph 3.5 mph 56 % 0.00 in
16:21 41.4 °F 26.9 °F 30.16 in North 4.1 mph 6.9 mph 56 % 0.00 in
16:26 41.2 °F 27.1 °F 30.16 in North 5.2 mph 8.1 mph 57 % 0.00 in
16:31 41.1 °F 27.0 °F 30.17 in NNW 3.3 mph 5.0 mph 57 % 0.00 in
16:36 41.0 °F 26.9 °F 30.17 in North 4.1 mph 5.8 mph 57 % 0.00 in
16:42 40.9 °F 26.8 °F 30.17 in North 3.8 mph 6.9 mph 57 % 0.00 in
16:47 40.8 °F 26.7 °F 30.17 in NNE 5.7 mph 6.9 mph 57 % 0.00 in
16:52 40.8 °F 26.3 °F 30.16 in NNE 4.5 mph 6.9 mph 56 % 0.00 in
16:57 40.7 °F 27.1 °F 30.17 in North 3.7 mph 5.8 mph 58 % 0.00 in
17:02 40.6 °F 27.0 °F 30.17 in NNE 3.6 mph 5.8 mph 58 % 0.00 in
17:07 40.5 °F 26.9 °F 30.17 in North 2.3 mph 5.8 mph 58 % 0.00 in
17:12 40.4 °F 26.8 °F 30.17 in NNE 3.8 mph 5.0 mph 58 % 0.00 in
17:17 40.3 °F 26.7 °F 30.17 in NNE 3.3 mph 5.8 mph 58 % 0.00 in
17:22 40.3 °F 26.7 °F 30.18 in NNE 0.9 mph 3.0 mph 58 % 0.00 in
17:27 40.2 °F 26.6 °F 30.18 in NNE 1.9 mph 4.6 mph 58 % 0.00 in
17:33 40.1 °F 26.1 °F 30.18 in North 4.4 mph 8.1 mph 57 % 0.00 in
17:38 40.1 °F 26.1 °F 30.18 in NNE 0.9 mph 2.3 mph 57 % 0.00 in
17:43 40.0 °F 26.8 °F 30.17 in NNE 2.2 mph 4.0 mph 59 % 0.00 in
17:48 40.0 °F 26.8 °F 30.18 in NNE 4.2 mph 8.1 mph 59 % 0.00 in
17:53 39.9 °F 26.7 °F 30.17 in NNE 1.9 mph 4.6 mph 59 % 0.00 in
17:58 39.8 °F 26.6 °F 30.17 in NNE 2.3 mph 4.0 mph 59 % 0.00 in
18:03 39.7 °F 26.9 °F 30.17 in NNE 2.6 mph 3.5 mph 60 % 0.00 in
18:08 39.7 °F 26.9 °F 30.17 in NNE 2.7 mph 4.6 mph 60 % 0.00 in
18:13 39.6 °F 27.2 °F 30.17 in NNE 1.6 mph 4.6 mph 61 % 0.00 in
18:18 39.6 °F 27.2 °F 30.17 in North 3.1 mph 4.0 mph 61 % 0.00 in
18:23 39.5 °F 27.5 °F 30.17 in NNE 0.2 mph 4.6 mph 62 % 0.00 in
18:29 39.5 °F 27.5 °F 30.17 in NE 2.0 mph 2.3 mph 62 % 0.00 in
18:34 39.4 °F 27.5 °F 30.17 in NE 1.7 mph 3.5 mph 62 % 0.00 in
18:39 39.4 °F 27.5 °F 30.17 in North 3.4 mph 6.0 mph 62 % 0.00 in
18:44 39.3 °F 27.4 °F 30.17 in NNE 3.2 mph 5.8 mph 62 % 0.00 in
18:49 39.3 °F 27.4 °F 30.17 in NNE 3.0 mph 5.8 mph 62 % 0.00 in
18:54 39.3 °F 27.4 °F 30.17 in NE 0.3 mph 1.2 mph 62 % 0.00 in
18:59 39.3 °F 27.4 °F 30.17 in NE 1.7 mph 3.5 mph 62 % 0.00 in
19:04 39.3 °F 27.4 °F 30.17 in NE 1.7 mph 3.5 mph 62 % 0.00 in
19:09 39.3 °F 27.4 °F 30.17 in East 3.4 mph 6.9 mph 62 % 0.00 in
19:14 39.4 °F 27.5 °F 30.17 in ENE 1.0 mph 3.5 mph 62 % 0.00 in
19:20 39.5 °F 27.9 °F 30.17 in NNE 3.6 mph 5.8 mph 63 % 0.00 in
19:25 39.5 °F 27.9 °F 30.18 in NE 1.2 mph 3.5 mph 63 % 0.00 in
19:30 39.5 °F 27.9 °F 30.17 in NE 2.0 mph 4.0 mph 63 % 0.00 in
19:35 39.5 °F 27.9 °F 30.18 in ENE 2.0 mph 4.0 mph 63 % 0.00 in
19:40 39.6 °F 28.0 °F 30.17 in NE 3.0 mph 6.0 mph 63 % 0.00 in
19:45 39.5 °F 27.5 °F 30.17 in NNE 2.0 mph 5.0 mph 62 % 0.00 in
19:50 39.5 °F 27.6 °F 30.17 in NNE 1.0 mph 6.0 mph 62 % 0.00 in
19:55 39.5 °F 27.5 °F 30.17 in NNE 0.9 mph 3.5 mph 62 % 0.00 in
20:00 39.5 °F 27.5 °F 30.17 in ENE 3.4 mph 4.6 mph 62 % 0.00 in
20:05 39.6 °F 27.6 °F 30.16 in ENE 1.5 mph 4.0 mph 62 % 0.00 in
20:10 39.6 °F 28.0 °F 30.17 in NE 2.4 mph 4.0 mph 63 % 0.00 in
20:15 39.6 °F 28.0 °F 30.17 in NE 1.5 mph 3.5 mph 63 % 0.00 in
20:20 39.6 °F 28.4 °F 30.16 in NNE 2.4 mph 3.5 mph 64 % 0.00 in
20:25 39.6 °F 28.4 °F 30.16 in NE 0.8 mph 3.5 mph 64 % 0.00 in
20:30 39.6 °F 28.0 °F 30.17 in NE 0.7 mph 3.0 mph 63 % 0.00 in
20:35 39.6 °F 28.4 °F 30.16 in ENE 2.0 mph 3.5 mph 64 % 0.00 in
20:41 39.5 °F 28.3 °F 30.16 in ENE 2.1 mph 4.6 mph 64 % 0.00 in
20:46 39.5 °F 28.7 °F 30.15 in ENE 3.4 mph 4.6 mph 65 % 0.00 in
20:51 39.6 °F 28.8 °F 30.15 in ENE 3.0 mph 6.9 mph 65 % 0.00 in
20:56 39.5 °F 28.7 °F 30.15 in ENE 2.0 mph 3.5 mph 65 % 0.00 in
21:01 39.5 °F 29.1 °F 30.15 in ENE 2.1 mph 3.5 mph 66 % 0.00 in
21:06 39.5 °F 28.7 °F 30.15 in NE 1.4 mph 3.5 mph 65 % 0.00 in
21:11 39.5 °F 29.1 °F 30.15 in ENE 2.9 mph 4.0 mph 66 % 0.00 in
21:16 39.5 °F 29.1 °F 30.15 in NE 1.9 mph 4.0 mph 66 % 0.00 in
21:21 39.6 °F 29.5 °F 30.15 in ENE 3.4 mph 4.6 mph 67 % 0.00 in
21:26 39.6 °F 28.8 °F 30.15 in ENE 4.3 mph 5.0 mph 65 % 0.00 in
21:31 39.6 °F 29.2 °F 30.14 in ENE 2.4 mph 3.5 mph 66 % 0.00 in
21:37 39.7 °F 28.9 °F 30.14 in ENE 2.4 mph 3.5 mph 65 % 0.00 in
21:42 39.7 °F 28.9 °F 30.14 in ENE 1.4 mph 3.5 mph 65 % 0.00 in
21:47 39.6 °F 29.2 °F 30.13 in ENE 2.3 mph 3.5 mph 66 % 0.00 in
21:52 39.6 °F 29.2 °F 30.13 in ENE 0.7 mph 2.3 mph 66 % 0.00 in
21:57 39.6 °F 29.5 °F 30.13 in ENE 1.8 mph 3.5 mph 67 % 0.00 in
22:02 39.5 °F 29.1 °F 30.14 in ENE 0.3 mph 2.3 mph 66 % 0.00 in
22:07 39.5 °F 29.1 °F 30.13 in Calm     66 % 0.00 in
22:12 39.4 °F 29.3 °F 30.13 in Calm     67 % 0.00 in
22:17 39.4 °F 29.3 °F 30.13 in Calm     67 % 0.00 in
22:22 39.3 °F 29.3 °F 30.13 in Calm     67 % 0.00 in
22:28 39.2 °F 29.2 °F 30.14 in Calm   1.2 mph 67 % 0.00 in
22:33 39.1 °F 28.7 °F 30.13 in ENE 0.2 mph 2.3 mph 66 % 0.00 in
22:38 38.9 °F 28.5 °F 30.14 in East 0.1 mph 2.3 mph 66 % 0.00 in
22:43 38.9 °F 28.5 °F 30.14 in East 0.8 mph 2.3 mph 66 % 0.00 in
22:48 38.8 °F 28.8 °F 30.14 in East 1.2 mph 2.3 mph 67 % 0.00 in
22:53 38.8 °F 28.4 °F 30.13 in East 1.6 mph 3.5 mph 66 % 0.00 in
22:58 38.7 °F 28.7 °F 30.13 in East 0.7 mph 2.3 mph 67 % 0.00 in
23:03 38.7 °F 28.7 °F 30.13 in Calm     67 % 0.00 in
23:08 38.6 °F 28.2 °F 30.13 in East 0.1 mph 1.2 mph 66 % 0.00 in
23:13 38.6 °F 28.6 °F 30.13 in Calm   1.2 mph 67 % 0.00 in
23:19 38.6 °F 28.6 °F 30.12 in Calm     67 % 0.00 in
23:24 38.6 °F 28.6 °F 30.12 in Calm     67 % 0.00 in
23:29 38.6 °F 28.6 °F 30.12 in Calm   1.2 mph 67 % 0.00 in
23:34 38.6 °F 28.9 °F 30.11 in Calm   2.3 mph 68 % 0.00 in
23:39 38.5 °F 28.5 °F 30.12 in Calm   1.2 mph 67 % 0.00 in
23:44 38.5 °F 28.5 °F 30.11 in Calm   1.0 mph 67 % 0.00 in
23:49 38.4 °F 28.4 °F 30.11 in East 0.2 mph 2.3 mph 67 % 0.00 in
23:54 38.4 °F 28.4 °F 30.10 in Calm     67 % 0.00 in
23:59 38.4 °F 28.4 °F 30.10 in Calm     67 % 0.00 in
Crab Meadow Weather
Compliments of Weather Underground - 3 mb

Script developed by  Jim McMurry - jmcmurry@mwt.net Adapted for the template by  Wim van der Kuil - Leuven-Template.eu

Weather Terms: Freezing Rain/Freezing Drizzle - Rain or drizzle which falls in liquid form and freezes on impact with cold surfaces to form a glaze on the ground and exposed objects.